BOX117 EBBR-EDDP
Flight info
| Callsign | BOX117 |
|---|---|
| Flight time | 0h 52m |
| Altitude | 31000 |
| Route | SOPOK Y863 ROPUV L607 EMGOD DCT AMASI DCT MASEK T278 TAMEB T955 GOXLI GOXLI1R |
| Aircraft | B77L/H-SDE1E2E3FGHIJ2J3J4J5M1RWXY/LB1D1 |
Departure
| Time | 2026-05-07 19:54 |
|---|---|
| Airport | Brussels Airport (EBBR) |
Arrival
| Time | 2026-05-07 20:46 |
|---|---|
| Airport | Leipzig/Halle Airport (EDDP) |
| Time | Latitude | Longitude | Altitude | Speed | Heading |
|---|---|---|---|---|---|
| 2026-05-07 19:13 | 50.90414 | 4.46243 | 137 ft | 0 kts | 335° |
| 2026-05-07 19:23 | 50.90406 | 4.46249 | 137 ft | 4 kts | 335° |
| 2026-05-07 19:23 | 50.90381 | 4.46267 | 137 ft | 4 kts | 335° |
| 2026-05-07 19:23 | 50.90359 | 4.46283 | 137 ft | 3 kts | 335° |
| 2026-05-07 19:23 | 50.90336 | 4.46292 | 138 ft | 4 kts | 26° |
| 2026-05-07 19:24 | 50.90322 | 4.46263 | 138 ft | 4 kts | 68° |
| 2026-05-07 19:24 | 50.90318 | 4.46248 | 138 ft | 3 kts | 65° |
| 2026-05-07 19:29 | 50.90328 | 4.46283 | 138 ft | 11 kts | 65° |
| 2026-05-07 19:29 | 50.90360 | 4.46399 | 136 ft | 11 kts | 68° |
| 2026-05-07 19:29 | 50.90359 | 4.46514 | 133 ft | 10 kts | 110° |
| 2026-05-07 19:30 | 50.90350 | 4.46546 | 130 ft | 0 kts | 114° |
| 2026-05-07 19:30 | 50.90342 | 4.46573 | 130 ft | 14 kts | 115° |
| 2026-05-07 19:30 | 50.90257 | 4.46843 | 127 ft | 34 kts | 117° |
| 2026-05-07 19:30 | 50.90188 | 4.47062 | 132 ft | 0 kts | 115° |
| 2026-05-07 19:31 | 50.90187 | 4.47064 | 132 ft | 0 kts | 115° |
| 2026-05-07 19:31 | 50.90186 | 4.47067 | 128 ft | 0 kts | 115° |
| 2026-05-07 19:32 | 50.90186 | 4.47068 | 128 ft | 0 kts | 115° |
| 2026-05-07 19:32 | 50.90162 | 4.47141 | 126 ft | 19 kts | 117° |
| 2026-05-07 19:33 | 50.90132 | 4.47278 | 127 ft | 0 kts | 86° |
| 2026-05-07 19:34 | 50.90159 | 4.47336 | 128 ft | 16 kts | 24° |
| 2026-05-07 19:34 | 50.90255 | 4.47456 | 126 ft | 19 kts | 67° |
| 2026-05-07 19:34 | 50.90309 | 4.47645 | 122 ft | 19 kts | 65° |
| 2026-05-07 19:34 | 50.90367 | 4.47833 | 122 ft | 19 kts | 64° |
| 2026-05-07 19:35 | 50.90421 | 4.48025 | 124 ft | 19 kts | 66° |
| 2026-05-07 19:35 | 50.90475 | 4.48216 | 120 ft | 19 kts | 65° |
| 2026-05-07 19:35 | 50.90531 | 4.48407 | 123 ft | 19 kts | 65° |
| 2026-05-07 19:35 | 50.90587 | 4.48597 | 121 ft | 19 kts | 65° |
| 2026-05-07 19:36 | 50.90642 | 4.48786 | 121 ft | 19 kts | 66° |
| 2026-05-07 19:36 | 50.90696 | 4.48977 | 123 ft | 19 kts | 66° |
| 2026-05-07 19:36 | 50.90732 | 4.49104 | 122 ft | 19 kts | 65° |
| 2026-05-07 19:36 | 50.90803 | 4.49351 | 123 ft | 17 kts | 65° |
| 2026-05-07 19:37 | 50.90824 | 4.49420 | 128 ft | 0 kts | 65° |
| 2026-05-07 19:38 | 50.90824 | 4.49421 | 126 ft | 1 kts | 65° |
| 2026-05-07 19:38 | 50.90841 | 4.49480 | 128 ft | 7 kts | 65° |
| 2026-05-07 19:38 | 50.90849 | 4.49509 | 125 ft | 0 kts | 65° |
| 2026-05-07 19:39 | 50.90850 | 4.49511 | 123 ft | 2 kts | 65° |
| 2026-05-07 19:39 | 50.90879 | 4.49636 | 127 ft | 16 kts | 78° |
| 2026-05-07 19:40 | 50.90880 | 4.49782 | 126 ft | 10 kts | 96° |
| 2026-05-07 19:40 | 50.90869 | 4.49852 | 127 ft | 0 kts | 109° |
| 2026-05-07 19:40 | 50.90869 | 4.49853 | 128 ft | 0 kts | 109° |
| 2026-05-07 19:41 | 50.90869 | 4.49854 | 127 ft | 0 kts | 109° |
| 2026-05-07 19:42 | 50.90840 | 4.49898 | 122 ft | 13 kts | 153° |
| 2026-05-07 19:42 | 50.90752 | 4.49969 | 122 ft | 15 kts | 119° |
| 2026-05-07 19:42 | 50.90725 | 4.50129 | 123 ft | 15 kts | 104° |
| 2026-05-07 19:42 | 50.90700 | 4.50286 | 121 ft | 14 kts | 104° |
| 2026-05-07 19:43 | 50.90717 | 4.50412 | 120 ft | 13 kts | 26° |
| 2026-05-07 19:43 | 50.90804 | 4.50450 | 123 ft | 13 kts | 14° |
| 2026-05-07 19:43 | 50.90898 | 4.50488 | 123 ft | 14 kts | 14° |
| 2026-05-07 19:43 | 50.90990 | 4.50525 | 122 ft | 13 kts | 12° |
| 2026-05-07 19:44 | 50.91075 | 4.50527 | 120 ft | 12 kts | 353° |
| 2026-05-07 19:44 | 50.91115 | 4.50519 | 123 ft | 0 kts | 352° |
| 2026-05-07 19:52 | 50.91141 | 4.50513 | 121 ft | 13 kts | 352° |
| 2026-05-07 19:53 | 50.91226 | 4.50397 | 120 ft | 17 kts | 292° |
| 2026-05-07 19:53 | 50.91234 | 4.50217 | 122 ft | 16 kts | 251° |
| 2026-05-07 19:53 | 50.91169 | 4.49992 | 120 ft | 41 kts | 244° |
| 2026-05-07 19:53 | 50.90949 | 4.49235 | 121 ft | 108 kts | 245° |
| 2026-05-07 19:54 | 50.90555 | 4.47871 | 125 ft | 162 kts | 245° |
| 2026-05-07 19:54 | 50.90055 | 4.46107 | 328 ft | 184 kts | 246° |
| 2026-05-07 19:54 | 50.89536 | 4.44226 | 800 ft | 189 kts | 246° |
| 2026-05-07 19:54 | 50.88996 | 4.42346 | 1423 ft | 187 kts | 245° |
| 2026-05-07 19:55 | 50.88434 | 4.40468 | 1926 ft | 193 kts | 239° |
| 2026-05-07 19:55 | 50.87389 | 4.39081 | 2062 ft | 212 kts | 194° |
| 2026-05-07 19:55 | 50.85865 | 4.39178 | 2233 ft | 233 kts | 156° |
| 2026-05-07 19:55 | 50.84533 | 4.40771 | 2547 ft | 249 kts | 126° |
| 2026-05-07 19:56 | 50.83574 | 4.43067 | 3135 ft | 256 kts | 121° |
| 2026-05-07 19:56 | 50.82615 | 4.45471 | 3877 ft | 261 kts | 121° |
| 2026-05-07 19:56 | 50.81632 | 4.47916 | 4656 ft | 263 kts | 122° |
| 2026-05-07 19:56 | 50.80638 | 4.50376 | 5406 ft | 266 kts | 122° |
| 2026-05-07 19:57 | 50.79631 | 4.52849 | 6181 ft | 269 kts | 123° |
| 2026-05-07 19:57 | 50.78604 | 4.55347 | 6867 ft | 273 kts | 123° |
| 2026-05-07 19:57 | 50.77566 | 4.57856 | 7091 ft | 277 kts | 123° |
| 2026-05-07 19:57 | 50.76501 | 4.60422 | 7079 ft | 278 kts | 123° |
| 2026-05-07 19:58 | 50.75436 | 4.62984 | 7286 ft | 278 kts | 123° |
| 2026-05-07 19:58 | 50.74334 | 4.65452 | 7995 ft | 279 kts | 129° |
| 2026-05-07 19:58 | 50.73093 | 4.67795 | 8668 ft | 278 kts | 123° |
| 2026-05-07 19:58 | 50.72378 | 4.70652 | 9162 ft | 283 kts | 102° |
| 2026-05-07 19:59 | 50.71984 | 4.73748 | 9783 ft | 288 kts | 102° |
| 2026-05-07 19:59 | 50.71569 | 4.76865 | 10441 ft | 292 kts | 102° |
| 2026-05-07 19:59 | 50.71123 | 4.80070 | 10665 ft | 314 kts | 103° |
| 2026-05-07 19:59 | 50.70621 | 4.83556 | 10867 ft | 337 kts | 103° |
| 2026-05-07 20:00 | 50.70070 | 4.87292 | 11056 ft | 361 kts | 103° |
| 2026-05-07 20:00 | 50.69522 | 4.91247 | 11543 ft | 374 kts | 100° |
| 2026-05-07 20:00 | 50.69120 | 4.95367 | 12223 ft | 383 kts | 98° |
| 2026-05-07 20:00 | 50.68767 | 4.99544 | 13055 ft | 387 kts | 98° |
| 2026-05-07 20:01 | 50.68422 | 5.03726 | 13888 ft | 390 kts | 98° |
| 2026-05-07 20:01 | 50.68072 | 5.08017 | 14679 ft | 395 kts | 97° |
| 2026-05-07 20:01 | 50.67723 | 5.12342 | 15436 ft | 400 kts | 97° |
| 2026-05-07 20:01 | 50.67369 | 5.16740 | 16170 ft | 404 kts | 97° |
| 2026-05-07 20:02 | 50.67016 | 5.21122 | 16898 ft | 409 kts | 97° |
| 2026-05-07 20:02 | 50.66651 | 5.25627 | 17615 ft | 413 kts | 97° |
| 2026-05-07 20:02 | 50.66291 | 5.30091 | 18265 ft | 418 kts | 97° |
| 2026-05-07 20:02 | 50.65919 | 5.34691 | 18936 ft | 422 kts | 97° |
| 2026-05-07 20:03 | 50.65549 | 5.39244 | 19575 ft | 426 kts | 97° |
| 2026-05-07 20:03 | 50.65073 | 5.43862 | 20093 ft | 426 kts | 107° |
| 2026-05-07 20:03 | 50.63831 | 5.48135 | 20551 ft | 432 kts | 122° |
| 2026-05-07 20:03 | 50.62161 | 5.52104 | 21149 ft | 435 kts | 125° |
| 2026-05-07 20:04 | 50.60530 | 5.56090 | 21785 ft | 438 kts | 121° |
| 2026-05-07 20:04 | 50.59094 | 5.60386 | 22371 ft | 443 kts | 115° |
| 2026-05-07 20:04 | 50.57914 | 5.64899 | 22930 ft | 447 kts | 110° |
| 2026-05-07 20:04 | 50.56936 | 5.69553 | 23465 ft | 451 kts | 107° |
| 2026-05-07 20:05 | 50.56084 | 5.74295 | 23989 ft | 456 kts | 105° |
| 2026-05-07 20:05 | 50.55282 | 5.79156 | 24074 ft | 462 kts | 105° |
| 2026-05-07 20:05 | 50.54507 | 5.84038 | 24074 ft | 459 kts | 104° |
| 2026-05-07 20:05 | 50.53735 | 5.88920 | 24062 ft | 456 kts | 104° |
| 2026-05-07 20:06 | 50.52962 | 5.93748 | 24079 ft | 455 kts | 105° |
| 2026-05-07 20:06 | 50.52184 | 5.98536 | 24083 ft | 455 kts | 105° |
| 2026-05-07 20:06 | 50.51387 | 6.03375 | 24105 ft | 458 kts | 105° |
| 2026-05-07 20:06 | 50.50588 | 6.08181 | 24557 ft | 461 kts | 105° |
| 2026-05-07 20:07 | 50.49768 | 6.13081 | 25130 ft | 463 kts | 105° |
| 2026-05-07 20:07 | 50.48947 | 6.17973 | 25675 ft | 465 kts | 105° |
| 2026-05-07 20:07 | 50.48111 | 6.22938 | 26161 ft | 469 kts | 105° |
| 2026-05-07 20:07 | 50.47274 | 6.27902 | 26625 ft | 473 kts | 105° |
| 2026-05-07 20:08 | 50.46428 | 6.32906 | 27090 ft | 476 kts | 105° |
| 2026-05-07 20:08 | 50.45573 | 6.37944 | 27546 ft | 478 kts | 105° |
| 2026-05-07 20:08 | 50.44718 | 6.42963 | 27976 ft | 481 kts | 105° |
| 2026-05-07 20:08 | 50.43846 | 6.48070 | 28398 ft | 484 kts | 105° |
| 2026-05-07 20:09 | 50.42970 | 6.53187 | 28796 ft | 487 kts | 105° |
| 2026-05-07 20:09 | 50.42098 | 6.58281 | 29176 ft | 490 kts | 105° |
| 2026-05-07 20:09 | 50.41208 | 6.63453 | 29561 ft | 492 kts | 105° |
| 2026-05-07 20:10 | 50.39420 | 6.73791 | 30484 ft | 490 kts | 105° |
| 2026-05-07 20:10 | 50.38524 | 6.78953 | 30978 ft | 489 kts | 105° |
| 2026-05-07 20:10 | 50.37624 | 6.84121 | 31070 ft | 493 kts | 105° |
| 2026-05-07 20:11 | 50.35813 | 6.94475 | 31075 ft | 490 kts | 105° |
| 2026-05-07 20:11 | 50.34017 | 7.04682 | 31077 ft | 487 kts | 105° |
| 2026-05-07 20:12 | 50.32207 | 7.14913 | 31070 ft | 487 kts | 105° |
| 2026-05-07 20:12 | 50.30385 | 7.25155 | 31075 ft | 487 kts | 105° |
| 2026-05-07 20:13 | 50.28569 | 7.35304 | 31081 ft | 487 kts | 105° |
| 2026-05-07 20:13 | 50.26731 | 7.45529 | 31069 ft | 489 kts | 105° |
| 2026-05-07 20:14 | 50.25030 | 7.55914 | 31081 ft | 498 kts | 97° |
| 2026-05-07 20:14 | 50.24938 | 7.61343 | 31081 ft | 502 kts | 85° |
| 2026-05-07 20:14 | 50.25498 | 7.66755 | 31085 ft | 506 kts | 74° |
| 2026-05-07 20:15 | 50.28022 | 7.76977 | 31077 ft | 506 kts | 66° |
| 2026-05-07 20:15 | 50.30730 | 7.87174 | 31084 ft | 507 kts | 67° |
| 2026-05-07 20:16 | 50.33371 | 7.97426 | 31084 ft | 507 kts | 68° |
| 2026-05-07 20:16 | 50.35957 | 8.07678 | 31079 ft | 506 kts | 68° |
| 2026-05-07 20:17 | 50.38513 | 8.17895 | 31083 ft | 504 kts | 68° |
| 2026-05-07 20:17 | 50.41055 | 8.28086 | 31086 ft | 503 kts | 68° |
| 2026-05-07 20:18 | 50.43605 | 8.38350 | 31082 ft | 503 kts | 68° |
| 2026-05-07 20:18 | 50.46123 | 8.48532 | 31087 ft | 502 kts | 68° |
| 2026-05-07 20:19 | 50.48637 | 8.58736 | 31082 ft | 502 kts | 68° |
| 2026-05-07 20:19 | 50.51144 | 8.68964 | 31076 ft | 501 kts | 68° |
| 2026-05-07 20:20 | 50.53644 | 8.79221 | 31084 ft | 501 kts | 69° |
| 2026-05-07 20:20 | 50.56126 | 8.89434 | 31086 ft | 502 kts | 69° |
| 2026-05-07 20:21 | 50.58610 | 8.99707 | 31085 ft | 502 kts | 69° |
| 2026-05-07 20:21 | 50.61075 | 9.09955 | 31077 ft | 502 kts | 69° |
| 2026-05-07 20:22 | 50.63140 | 9.18574 | 31079 ft | 502 kts | 69° |
| 2026-05-07 20:22 | 50.65597 | 9.28879 | 31089 ft | 502 kts | 69° |
| 2026-05-07 20:23 | 50.68030 | 9.39133 | 31095 ft | 502 kts | 69° |
| 2026-05-07 20:23 | 50.70477 | 9.49489 | 31093 ft | 502 kts | 69° |
| 2026-05-07 20:24 | 50.72715 | 9.59924 | 31095 ft | 502 kts | 75° |
| 2026-05-07 20:24 | 50.73809 | 9.70715 | 31108 ft | 502 kts | 84° |
| 2026-05-07 20:25 | 50.74541 | 9.81691 | 31101 ft | 502 kts | 84° |
| 2026-05-07 20:25 | 50.75297 | 9.92621 | 31088 ft | 490 kts | 83° |
| 2026-05-07 20:26 | 50.76051 | 10.03187 | 31094 ft | 484 kts | 83° |
| 2026-05-07 20:26 | 50.76789 | 10.13588 | 30549 ft | 458 kts | 83° |
| 2026-05-07 20:26 | 50.77127 | 10.18429 | 29816 ft | 440 kts | 83° |
| 2026-05-07 20:27 | 50.77459 | 10.23196 | 28579 ft | 435 kts | 83° |
| 2026-05-07 20:27 | 50.77789 | 10.27979 | 27073 ft | 436 kts | 83° |
| 2026-05-07 20:27 | 50.78113 | 10.32708 | 25614 ft | 435 kts | 84° |
| 2026-05-07 20:27 | 50.78438 | 10.37476 | 24192 ft | 432 kts | 84° |
| 2026-05-07 20:28 | 50.78758 | 10.42188 | 22762 ft | 429 kts | 84° |
| 2026-05-07 20:28 | 50.79073 | 10.46849 | 21378 ft | 424 kts | 84° |
| 2026-05-07 20:28 | 50.79377 | 10.51389 | 20095 ft | 418 kts | 84° |
| 2026-05-07 20:28 | 50.79677 | 10.55898 | 19487 ft | 405 kts | 84° |
| 2026-05-07 20:29 | 50.79972 | 10.60340 | 18996 ft | 403 kts | 84° |
| 2026-05-07 20:29 | 50.80260 | 10.64736 | 18519 ft | 400 kts | 84° |
| 2026-05-07 20:29 | 50.80587 | 10.69034 | 18042 ft | 397 kts | 79° |
| 2026-05-07 20:29 | 50.81285 | 10.73234 | 17555 ft | 394 kts | 70° |
| 2026-05-07 20:30 | 50.82335 | 10.77235 | 17086 ft | 391 kts | 62° |
| 2026-05-07 20:30 | 50.83674 | 10.80962 | 16597 ft | 387 kts | 58° |
| 2026-05-07 20:30 | 50.85036 | 10.84570 | 16131 ft | 385 kts | 58° |
| 2026-05-07 20:30 | 50.86407 | 10.88199 | 15655 ft | 383 kts | 58° |
| 2026-05-07 20:31 | 50.87764 | 10.91807 | 15175 ft | 380 kts | 58° |
| 2026-05-07 20:31 | 50.89111 | 10.95416 | 14704 ft | 378 kts | 59° |
| 2026-05-07 20:31 | 50.90448 | 10.99014 | 14230 ft | 375 kts | 59° |
| 2026-05-07 20:31 | 50.91748 | 11.02528 | 13763 ft | 373 kts | 59° |
| 2026-05-07 20:32 | 50.93064 | 11.06093 | 13290 ft | 370 kts | 59° |
| 2026-05-07 20:32 | 50.94348 | 11.09578 | 12836 ft | 367 kts | 59° |
| 2026-05-07 20:32 | 50.95636 | 11.13081 | 12368 ft | 365 kts | 59° |
| 2026-05-07 20:32 | 50.96903 | 11.16530 | 11915 ft | 362 kts | 59° |
| 2026-05-07 20:33 | 50.98172 | 11.19989 | 11451 ft | 360 kts | 59° |
| 2026-05-07 20:33 | 50.99408 | 11.23366 | 11102 ft | 354 kts | 59° |
| 2026-05-07 20:33 | 51.00627 | 11.26701 | 10954 ft | 342 kts | 59° |
| 2026-05-07 20:33 | 51.01797 | 11.29907 | 10805 ft | 331 kts | 59° |
| 2026-05-07 20:34 | 51.02938 | 11.33034 | 10640 ft | 319 kts | 59° |
| 2026-05-07 20:34 | 51.04031 | 11.36037 | 10522 ft | 308 kts | 59° |
| 2026-05-07 20:34 | 51.05078 | 11.38912 | 10389 ft | 297 kts | 59° |
| 2026-05-07 20:34 | 51.06097 | 11.41716 | 10263 ft | 286 kts | 59° |
| 2026-05-07 20:35 | 51.07065 | 11.44379 | 10141 ft | 274 kts | 59° |
| 2026-05-07 20:35 | 51.08002 | 11.46959 | 9961 ft | 265 kts | 59° |
| 2026-05-07 20:35 | 51.08921 | 11.49493 | 9681 ft | 265 kts | 59° |
| 2026-05-07 20:35 | 51.09842 | 11.52035 | 9395 ft | 271 kts | 59° |
| 2026-05-07 20:36 | 51.10838 | 11.54602 | 9052 ft | 269 kts | 49° |
| 2026-05-07 20:36 | 51.12326 | 11.56303 | 8722 ft | 261 kts | 19° |
| 2026-05-07 20:36 | 51.14022 | 11.57083 | 8442 ft | 256 kts | 15° |
| 2026-05-07 20:36 | 51.15767 | 11.57846 | 8144 ft | 263 kts | 15° |
| 2026-05-07 20:37 | 51.17545 | 11.58630 | 7821 ft | 267 kts | 15° |
| 2026-05-07 20:37 | 51.19333 | 11.59420 | 7488 ft | 266 kts | 15° |
| 2026-05-07 20:37 | 51.21106 | 11.60205 | 7159 ft | 262 kts | 15° |
| 2026-05-07 20:37 | 51.22863 | 11.60983 | 6845 ft | 258 kts | 15° |
| 2026-05-07 20:38 | 51.24564 | 11.61736 | 6536 ft | 254 kts | 16° |
| 2026-05-07 20:38 | 51.26258 | 11.62490 | 6230 ft | 249 kts | 16° |
| 2026-05-07 20:38 | 51.27898 | 11.63220 | 5927 ft | 244 kts | 16° |
| 2026-05-07 20:38 | 51.29535 | 11.63952 | 5644 ft | 246 kts | 16° |
| 2026-05-07 20:39 | 51.31218 | 11.64702 | 5283 ft | 253 kts | 16° |
| 2026-05-07 20:39 | 51.32922 | 11.65465 | 4956 ft | 251 kts | 16° |
| 2026-05-07 20:39 | 51.34586 | 11.66207 | 4636 ft | 249 kts | 16° |
| 2026-05-07 20:39 | 51.36252 | 11.66951 | 4338 ft | 247 kts | 17° |
| 2026-05-07 20:40 | 51.37735 | 11.68263 | 4080 ft | 244 kts | 48° |
| 2026-05-07 20:40 | 51.38600 | 11.70560 | 4026 ft | 246 kts | 73° |
| 2026-05-07 20:40 | 51.38831 | 11.73272 | 4019 ft | 248 kts | 86° |
| 2026-05-07 20:40 | 51.38971 | 11.76071 | 4012 ft | 254 kts | 84° |
| 2026-05-07 20:41 | 51.39133 | 11.78893 | 3998 ft | 253 kts | 84° |
| 2026-05-07 20:41 | 51.39283 | 11.81651 | 3873 ft | 248 kts | 84° |
| 2026-05-07 20:41 | 51.39449 | 11.84326 | 3718 ft | 237 kts | 84° |
| 2026-05-07 20:41 | 51.39584 | 11.86912 | 3565 ft | 226 kts | 85° |
| 2026-05-07 20:42 | 51.39702 | 11.89364 | 3439 ft | 215 kts | 85° |
| 2026-05-07 20:42 | 51.39810 | 11.91729 | 3368 ft | 216 kts | 85° |
| 2026-05-07 20:42 | 51.39922 | 11.94146 | 3242 ft | 214 kts | 85° |
| 2026-05-07 20:42 | 51.40034 | 11.96488 | 3130 ft | 211 kts | 85° |
| 2026-05-07 20:43 | 51.40142 | 11.98800 | 3046 ft | 203 kts | 85° |
| 2026-05-07 20:43 | 51.40248 | 12.01069 | 2831 ft | 206 kts | 85° |
| 2026-05-07 20:43 | 51.40357 | 12.03332 | 2516 ft | 198 kts | 85° |
| 2026-05-07 20:43 | 51.40454 | 12.05439 | 2269 ft | 182 kts | 85° |
| 2026-05-07 20:44 | 51.40546 | 12.07369 | 2046 ft | 171 kts | 85° |
| 2026-05-07 20:44 | 51.40634 | 12.09282 | 1806 ft | 170 kts | 85° |
| 2026-05-07 20:44 | 51.40721 | 12.11109 | 1586 ft | 159 kts | 85° |
| 2026-05-07 20:44 | 51.40803 | 12.12836 | 1412 ft | 153 kts | 85° |
| 2026-05-07 20:45 | 51.40882 | 12.14533 | 1194 ft | 155 kts | 85° |
| 2026-05-07 20:45 | 51.40964 | 12.16260 | 992 ft | 154 kts | 85° |
| 2026-05-07 20:45 | 51.41037 | 12.17979 | 774 ft | 154 kts | 86° |
| 2026-05-07 20:45 | 51.41118 | 12.19666 | 580 ft | 153 kts | 85° |
| 2026-05-07 20:46 | 51.41195 | 12.21347 | 467 ft | 142 kts | 86° |
| 2026-05-07 20:46 | 51.41266 | 12.22771 | 468 ft | 111 kts | 86° |
| 2026-05-07 20:46 | 51.41318 | 12.23801 | 478 ft | 76 kts | 85° |
| 2026-05-07 20:46 | 51.41347 | 12.24452 | 476 ft | 40 kts | 86° |
| 2026-05-07 20:47 | 51.41326 | 12.24626 | 480 ft | 9 kts | 150° |
| 2026-05-07 20:47 | 51.41261 | 12.24625 | 479 ft | 8 kts | 192° |
| 2026-05-07 20:47 | 51.41241 | 12.24616 | 478 ft | 0 kts | 196° |
| 2026-05-07 20:47 | 51.41230 | 12.24611 | 479 ft | 3 kts | 196° |
| 2026-05-07 20:48 | 51.41224 | 12.24608 | 479 ft | 0 kts | 195° |
| 2026-05-07 20:48 | 51.41223 | 12.24608 | 482 ft | 1 kts | 195° |
| 2026-05-07 20:49 | 51.41200 | 12.24598 | 474 ft | 6 kts | 195° |
| 2026-05-07 20:49 | 51.41153 | 12.24579 | 477 ft | 8 kts | 189° |
| 2026-05-07 20:49 | 51.41097 | 12.24609 | 475 ft | 9 kts | 135° |
| 2026-05-07 20:49 | 51.41037 | 12.24651 | 474 ft | 10 kts | 174° |
| 2026-05-07 20:50 | 51.40960 | 12.24660 | 471 ft | 11 kts | 176° |
| 2026-05-07 20:50 | 51.40896 | 12.24668 | 470 ft | 2 kts | 175° |
| 2026-05-07 20:50 | 51.40888 | 12.24669 | 470 ft | 0 kts | 175° |
| 2026-05-07 20:50 | 51.40881 | 12.24670 | 468 ft | 2 kts | 177° |
| 2026-05-07 20:51 | 51.40871 | 12.24654 | 470 ft | 2 kts | 245° |
| 2026-05-07 20:51 | 51.40871 | 12.24625 | 470 ft | 3 kts | 269° |
| 2026-05-07 20:51 | 51.40871 | 12.24596 | 470 ft | 3 kts | 268° |
| 2026-05-07 20:51 | 51.40870 | 12.24567 | 469 ft | 3 kts | 266° |
| 2026-05-07 20:52 | 51.40868 | 12.24538 | 470 ft | 3 kts | 266° |
| 2026-05-07 20:52 | 51.40867 | 12.24512 | 470 ft | 1 kts | 265° |
| 2026-05-07 20:52 | 51.40867 | 12.24505 | 470 ft | 0 kts | 265° |